aviador You're here:

OMAL Decoded Metar

AL AIN in UNITED ARAB EMIRATES
Report Time2017-06-24 17:00:00
UTC Time2017-06-24 17:22:41
Flight Rules vfr VFR
Wind340° at 09 kt
W.Decomp.*RWY 01: 7.7 kt HW 4.6 kt LCW
W.Rank340° ranks 7
Current wind is above 340° avg. (8.4)
Visibility9999 m
Phenomena:N/A
Clouds:N/A
Expected CloudBase > 10,400 ft AGL from Temp-Dew spread
CeilingNone
Temp39°C (ISA +26)
Dew Point13°C (21% RH)
Heat Index38.3°C
AAT36.6°C
QNH1001 hPa
Density Alt4,364 ft
Elevation869 ft
Report Wrong Elevation
Raw Report
METAR OMAL 241700Z 34009KT CAVOK 39/13 Q1001 NOSIG=

Extra information for OMAL:More info

Metar Taf Metar & Taf Last 4 Metars F.Rules Stats Wind Profile Meteogram Temp Stats Airport Information Weather charts Add Link Nearby VenuesMetar ALERT Operation Metar Decoded Social comments